Time;durP1;ratioP1;P1;durP2;ratioP2;P2;SDS_P1;SDS_P2;PMS_P1;PMS_P2;Temp;Humidity;BMP_temperature;BMP_pressure;BME280_temperature;BME280_humidity;BME280_pressure;Samples;Min_cycle;Max_cycle;Signal;HPM_P1;HPM_P2
2022/10/23 00:03:28;;;;;;;15.85;5.00;;;;;;;8.70;99.01;101380.53;10207988;29;20061;-87
2022/10/23 00:08:29;;;;;;;10.48;4.88;;;;;;;8.69;99.01;101381.34;10195698;29;20095;-88
2022/10/23 00:13:31;;;;;;;10.82;4.60;;;;;;;8.66;99.12;101376.91;10203278;29;20075;-86
2022/10/23 00:18:36;;;;;;;9.90;5.10;;;;;;;8.69;99.02;101363.06;10192316;29;20071;-87
2022/10/23 00:23:37;;;;;;;9.40;5.30;;;;;;;8.68;99.15;101364.81;10203351;29;20094;-86
2022/10/23 00:28:39;;;;;;;9.73;4.70;;;;;;;8.64;98.86;101374.25;10197464;29;20124;-87
2022/10/23 00:33:42;;;;;;;15.95;5.13;;;;;;;8.57;99.07;101366.16;10198538;29;20048;-86
2022/10/23 00:38:44;;;;;;;11.18;5.03;;;;;;;8.55;99.03;101371.31;10182187;29;20315;-87
2022/10/23 00:44:08;;;;;;;10.63;5.00;;;;;;;8.56;98.99;101365.28;10174610;29;20067;-85
2022/10/23 00:49:09;;;;;;;10.25;4.70;;;;;;;8.57;99.00;101361.84;10180312;29;20040;-86
2022/10/23 00:54:20;;;;;;;11.88;5.25;;;;;;;8.52;99.06;101358.16;10203289;29;20141;-86
2022/10/23 00:59:26;;;;;;;12.03;5.40;;;;;;;8.45;99.02;101362.28;10172827;29;20051;-87
2022/10/23 01:04:28;;;;;;;10.68;4.68;;;;;;;8.40;98.90;101365.53;10172036;29;20044;-87
2022/10/23 01:10:02;;;;;;;14.70;5.35;;;;;;;8.32;98.95;101366.16;10167850;29;20044;-87
2022/10/23 01:15:36;;;;;;;9.25;4.88;;;;;;;8.25;98.96;101361.53;10156399;29;20127;-86
2022/10/23 01:20:47;;;;;;;9.18;5.13;;;;;;;8.19;99.04;101363.94;10178333;29;20047;-86
2022/10/23 01:26:08;;;;;;;10.70;5.18;;;;;;;8.16;98.86;101358.59;10168657;29;20044;-86
2022/10/23 01:31:17;;;;;;;10.52;4.22;;;;;;;8.10;98.83;101350.56;10165630;29;20051;-85
2022/10/23 01:36:23;;;;;;;9.55;4.72;;;;;;;8.10;98.75;101353.16;10172015;29;20510;-85
2022/10/23 01:41:34;;;;;;;13.60;4.90;;;;;;;8.11;98.97;101355.84;10167324;29;20055;-86
2022/10/23 01:46:39;;;;;;;9.02;4.40;;;;;;;8.07;98.88;101355.66;10181284;29;20087;-86
2022/10/23 01:51:47;;;;;;;11.85;5.03;;;;;;;8.00;98.99;101359.78;10176038;29;20042;-87
2022/10/23 01:56:51;;;;;;;11.88;5.65;;;;;;;7.99;98.96;101352.78;10179981;29;20052;-85
2022/10/23 02:01:59;;;;;;;10.70;4.75;;;;;;;7.94;98.75;101352.63;10174106;29;20052;-86
2022/10/23 02:07:01;;;;;;;10.07;4.40;;;;;;;7.87;98.99;101355.81;10172125;29;20051;-86
2022/10/23 02:12:16;;;;;;;6.95;4.28;;;;;;;7.79;98.87;101357.25;10178550;29;20545;-86
2022/10/23 02:17:26;;;;;;;13.95;4.25;;;;;;;7.73;98.82;101354.41;10167973;29;20631;-86
2022/10/23 02:22:35;;;;;;;9.55;4.13;;;;;;;7.70;98.87;101343.88;10199308;29;20482;-87
2022/10/23 02:27:43;;;;;;;10.80;4.47;;;;;;;7.68;98.77;101329.91;10183792;29;20040;-86
2022/10/23 02:32:49;;;;;;;7.95;4.47;;;;;;;7.64;98.88;101322.78;10165248;29;20094;-87
2022/10/23 02:37:55;;;;;;;8.25;4.38;;;;;;;7.59;98.88;101328.69;10179920;29;20052;-85
2022/10/23 02:43:26;;;;;;;16.17;4.47;;;;;;;7.57;98.62;101319.06;10187365;29;20044;-86
2022/10/23 02:48:43;;;;;;;8.35;4.18;;;;;;;7.55;98.89;101310.28;10172998;29;20290;-86
2022/10/23 02:54:23;;;;;;;9.18;4.53;;;;;;;7.51;98.65;101313.63;10207961;29;20157;-87
2022/10/23 03:00:04;;;;;;;11.50;5.43;;;;;;;7.46;98.53;101294.31;10167162;29;20036;-87
2022/10/23 03:05:09;;;;;;;10.93;4.88;;;;;;;7.40;98.79;101305.38;10170016;29;20111;-87
2022/10/23 03:10:11;;;;;;;16.42;5.85;;;;;;;7.41;98.78;101301.94;10181588;29;20048;-86
2022/10/23 03:15:12;;;;;;;12.52;5.75;;;;;;;7.53;98.78;101297.19;10183374;29;20108;-86
2022/10/23 03:20:14;;;;;;;13.70;5.68;;;;;;;7.56;98.90;101276.47;10182527;29;20052;-86
2022/10/23 03:25:17;;;;;;;10.80;5.47;;;;;;;7.60;98.83;101278.38;10215853;28;20055;-87
2022/10/23 03:30:19;;;;;;;9.77;5.60;;;;;;;7.65;98.94;101277.66;10182278;29;20044;-87
2022/10/23 03:35:26;;;;;;;11.27;5.43;;;;;;;7.62;98.88;101275.81;10161696;29;20509;-86
2022/10/23 03:40:27;;;;;;;10.13;6.03;;;;;;;7.64;98.99;101268.06;10159348;29;20056;-88
2022/10/23 03:45:29;;;;;;;14.25;5.85;;;;;;;7.74;98.79;101272.78;10166625;29;20055;-86
2022/10/23 03:50:31;;;;;;;11.73;5.75;;;;;;;7.76;98.87;101285.03;10177890;29;20517;-86
2022/10/23 03:55:32;;;;;;;18.65;7.03;;;;;;;7.87;98.99;101272.38;10196460;29;20048;-88
2022/10/23 04:00:34;;;;;;;12.27;6.72;;;;;;;7.97;98.97;101260.53;10160976;29;20048;-87
2022/10/23 04:05:36;;;;;;;13.05;6.95;;;;;;;8.06;99.08;101257.38;10181044;29;20445;-86
2022/10/23 04:10:38;;;;;;;13.88;7.55;;;;;;;8.19;99.11;101266.53;10169085;29;20052;-86
2022/10/23 04:15:39;;;;;;;11.75;7.15;;;;;;;8.28;99.21;101252.06;10168841;29;20052;-86
2022/10/23 04:20:41;;;;;;;19.13;7.85;;;;;;;8.32;99.22;101243.50;10153733;29;20051;-87
2022/10/23 04:25:42;;;;;;;16.08;7.35;;;;;;;8.32;99.36;101246.13;10177135;29;20052;-87
2022/10/23 04:30:44;;;;;;;17.73;7.82;;;;;;;8.22;99.35;101240.53;10182243;29;20509;-87
2022/10/23 04:35:46;;;;;;;14.85;7.45;;;;;;;8.18;99.26;101247.38;10168153;29;20048;-85
2022/10/23 04:40:47;;;;;;;13.52;6.68;;;;;;;8.09;99.25;101247.97;10182947;29;20066;-88
2022/10/23 04:45:53;;;;;;;25.63;7.50;;;;;;;7.95;99.10;101252.66;10189974;29;20593;-87
2022/10/23 04:51:00;;;;;;;11.77;6.82;;;;;;;7.87;99.16;101255.88;10174034;29;20522;-87
2022/10/23 04:56:20;;;;;;;12.57;5.70;;;;;;;7.78;99.14;101257.28;10184149;29;20422;-87
2022/10/23 05:01:24;;;;;;;11.95;6.72;;;;;;;7.69;99.24;101253.47;10181980;29;20565;-86
2022/10/23 05:06:26;;;;;;;13.55;6.45;;;;;;;7.64;99.28;101252.41;10189884;29;20411;-89
2022/10/23 05:11:47;;;;;;;15.05;6.70;;;;;;;7.57;99.25;101252.19;10178781;29;20234;-88
2022/10/23 05:16:59;;;;;;;14.00;7.38;;;;;;;7.58;99.21;101248.75;10163834;29;20059;-87
2022/10/23 05:22:01;;;;;;;13.45;6.53;;;;;;;7.60;99.38;101236.66;10189383;29;20052;-87
2022/10/23 05:27:19;;;;;;;12.65;7.07;;;;;;;7.65;99.61;101239.44;10184638;29;20131;-87
2022/10/23 05:32:22;;;;;;;15.23;8.20;;;;;;;7.73;99.46;101231.88;10178198;29;20130;-86
2022/10/23 05:37:25;;;;;;;17.52;7.60;;;;;;;7.82;99.56;101219.19;10164774;29;20540;-87
2022/10/23 05:42:37;;;;;;;16.63;7.85;;;;;;;7.91;99.70;101216.91;10172787;29;20036;-87
2022/10/23 05:47:44;;;;;;;17.35;8.27;;;;;;;7.93;99.68;101210.00;10180543;29;20040;-87
2022/10/23 05:53:26;;;;;;;17.90;7.25;;;;;;;8.02;99.65;101196.41;10180863;29;20047;-88
2022/10/23 05:58:57;;;;;;;13.25;7.63;;;;;;;8.06;99.83;101189.56;10182222;29;20083;-86
2022/10/23 06:04:18;;;;;;;;;;;;;;;8.06;99.93;101198.28;10159721;29;20044;-87
2022/10/23 06:09:42;;;;;;;14.48;6.32;;;;;;;8.03;100.00;101199.91;10170404;29;19927;-89
2022/10/23 06:14:44;;;;;;;15.32;7.40;;;;;;;8.00;99.83;101195.50;10182087;29;20278;-86
2022/10/23 06:19:46;;;;;;;17.08;6.82;;;;;;;7.91;99.89;101201.25;10194012;29;20126;-86
2022/10/23 06:24:50;;;;;;;11.50;6.22;;;;;;;7.83;100.00;101188.78;10194249;29;20043;-90
2022/10/23 06:29:57;;;;;;;12.98;6.28;;;;;;;7.76;100.00;101185.97;10187229;29;20417;-90
2022/10/23 06:35:02;;;;;;;14.63;6.53;;;;;;;7.79;99.91;101190.38;10206693;29;20157;-90
2022/10/23 06:40:05;;;;;;;10.73;5.97;;;;;;;7.79;100.00;101196.50;10192372;29;20066;-90
2022/10/23 06:45:13;;;;;;;16.65;7.07;;;;;;;7.86;100.00;101188.91;10187429;29;20083;-89
2022/10/23 06:50:17;;;;;;;12.32;6.28;;;;;;;7.94;100.00;101180.50;10196788;29;20490;-90
2022/10/23 06:55:20;;;;;;;11.82;6.53;;;;;;;8.05;100.00;101183.47;10175738;29;20043;-88
2022/10/23 07:00:22;;;;;;;14.52;6.80;;;;;;;8.16;100.00;101191.66;10185343;29;20060;-90
2022/10/23 07:05:24;;;;;;;13.23;7.18;;;;;;;8.27;100.00;101184.19;10189338;29;20055;-87
2022/10/23 07:10:26;;;;;;;12.45;5.90;;;;;;;8.45;100.00;101186.53;10217212;28;20047;-90
2022/10/23 07:15:31;;;;;;;13.23;6.30;;;;;;;8.69;100.00;101191.63;10225957;29;20051;-89
2022/10/23 07:20:33;;;;;;;14.15;7.00;;;;;;;8.98;100.00;101187.31;10199922;29;20052;-87
2022/10/23 07:25:36;;;;;;;14.25;6.93;;;;;;;9.41;100.00;101182.44;10199714;29;20051;-88
2022/10/23 07:30:55;;;;;;;12.73;6.43;;;;;;;9.68;100.00;101195.41;10211490;28;20446;-88
2022/10/23 07:36:01;;;;;;;14.18;6.60;;;;;;;9.72;100.00;101197.25;10193068;29;20052;-89
2022/10/23 07:41:03;;;;;;;17.92;7.63;;;;;;;9.76;100.00;101194.72;10192676;29;20484;-90
2022/10/23 07:46:11;;;;;;;17.00;9.23;;;;;;;9.78;100.00;101193.03;10198316;29;20077;-91
2022/10/23 07:51:15;;;;;;;20.13;11.77;;;;;;;9.81;99.84;101187.91;10202854;29;20040;-89
2022/10/23 07:56:25;;;;;;;;;;;;;;;9.80;99.82;101175.66;10201823;29;20051;-90
2022/10/23 08:01:50;;;;;;;14.85;7.70;;;;;;;9.89;99.57;101166.34;10195173;29;19918;-89
2022/10/23 08:06:59;;;;;;;12.20;7.13;;;;;;;9.96;99.61;101166.47;10164662;29;20040;-89
2022/10/23 08:12:04;;;;;;;15.98;8.02;;;;;;;10.03;99.60;101169.28;10183236;29;20050;-91
2022/10/23 08:17:08;;;;;;;16.70;6.82;;;;;;;10.14;99.40;101147.75;10175654;29;20521;-90
2022/10/23 08:22:29;;;;;;;14.90;7.30;;;;;;;10.23;99.44;101155.81;10198607;29;20048;-90
2022/10/23 08:27:31;;;;;;;17.15;7.03;;;;;;;10.36;99.58;101152.69;10217347;29;20039;-90
2022/10/23 08:32:33;;;;;;;16.73;6.50;;;;;;;10.54;99.61;101144.38;10184863;29;20047;-90
2022/10/23 08:37:36;;;;;;;13.32;6.78;;;;;;;10.71;99.65;101149.97;10199844;29;20059;-90
2022/10/23 08:42:40;;;;;;;15.90;7.50;;;;;;;10.88;99.55;101141.63;10200697;29;20413;-90
2022/10/23 08:47:49;;;;;;;17.67;7.47;;;;;;;10.98;99.43;101143.59;10190120;29;20040;-90
2022/10/23 08:53:33;;;;;;;21.10;8.85;;;;;;;11.22;99.44;101144.94;10203726;29;20142;-90
2022/10/23 08:58:51;;;;;;;18.50;8.70;;;;;;;11.36;99.51;101156.56;10210088;29;20123;-90
2022/10/23 09:03:59;;;;;;;13.23;6.00;;;;;;;11.51;99.37;101145.50;10188704;29;20138;-89
2022/10/23 09:09:27;;;;;;;13.50;5.97;;;;;;;11.75;99.28;101149.44;10177309;29;20513;-90
2022/10/23 09:14:54;;;;;;;10.75;5.85;;;;;;;11.98;99.29;101145.53;10189448;29;20048;-91
2022/10/23 09:20:05;;;;;;;16.27;5.70;;;;;;;12.28;99.29;101143.34;10198025;29;20336;-90
2022/10/23 09:25:16;;;;;;;11.10;5.68;;;;;;;12.54;99.12;101139.38;10220953;29;20374;-90
2022/10/23 09:30:35;;;;;;;18.90;5.97;;;;;;;12.77;99.01;101130.94;10204611;29;20052;-88
2022/10/23 09:35:37;;;;;;;8.52;4.47;;;;;;;13.06;98.73;101133.06;10221356;29;20684;-87
2022/10/23 09:40:42;;;;;;;11.18;4.60;;;;;;;13.38;98.30;101124.72;10221540;23;20036;-80
2022/10/23 09:45:56;;;;;;;11.82;4.68;;;;;;;13.79;97.97;101116.34;10198417;29;20036;-77
2022/10/23 09:51:13;;;;;;;14.43;4.13;;;;;;;14.07;97.44;101117.47;10180316;29;20306;-76
2022/10/23 09:56:32;;;;;;;12.27;4.25;;;;;;;14.13;96.37;101112.25;10189295;29;20044;-78
2022/10/23 10:01:44;;;;;;;10.52;3.60;;;;;;;14.00;95.19;101104.25;10190780;29;20044;-77
2022/10/23 10:07:19;;;;;;;12.93;4.28;;;;;;;14.07;94.53;101098.16;10196389;29;20055;-76
2022/10/23 10:12:30;;;;;;;13.00;4.30;;;;;;;14.22;94.39;101077.19;10192713;29;20416;-76
2022/10/23 10:17:36;;;;;;;13.18;5.00;;;;;;;14.26;93.56;101068.47;10196012;29;20043;-78
2022/10/23 10:22:53;;;;;;;13.60;5.28;;;;;;;14.27;93.59;101067.56;10195832;29;20047;-77
2022/10/23 10:28:09;;;;;;;11.77;4.80;;;;;;;14.23;93.02;101060.53;10200568;29;20054;-76
2022/10/23 10:33:21;;;;;;;10.07;4.50;;;;;;;14.22;92.99;101053.50;10211073;29;20047;-76
2022/10/23 10:38:44;;;;;;;15.35;4.78;;;;;;;14.45;92.95;101039.56;10212233;28;20545;-77
2022/10/23 10:44:10;;;;;;;12.10;4.30;;;;;;;14.71;92.34;101036.22;10203344;29;20371;-76
2022/10/23 10:49:18;;;;;;;8.65;3.45;;;;;;;14.78;91.90;101027.47;10177604;29;20059;-77
2022/10/23 10:54:48;;;;;;;9.88;3.72;;;;;;;14.85;91.34;101029.25;10173263;29;20040;-75
2022/10/23 10:59:54;;;;;;;7.63;3.38;;;;;;;15.00;90.92;101029.28;10193849;29;20044;-77
2022/10/23 11:05:18;;;;;;;8.80;3.38;;;;;;;15.20;90.29;101015.25;10195340;29;20048;-76
2022/10/23 11:10:20;;;;;;;9.60;3.92;;;;;;;15.21;89.83;101027.59;10186707;29;20671;-76
2022/10/23 11:15:36;;;;;;;6.18;2.60;;;;;;;15.30;89.18;101006.47;10200077;29;20052;-76
2022/10/23 11:21:13;;;;;;;8.85;2.83;;;;;;;15.27;89.33;101001.22;10202316;29;20444;-76
2022/10/23 11:26:53;;;;;;;7.53;3.35;;;;;;;15.37;88.91;100996.81;10200078;29;20427;-78
2022/10/23 11:32:19;;;;;;;7.40;3.08;;;;;;;15.60;88.90;100969.53;10182488;29;20056;-76
2022/10/23 11:37:23;;;;;;;10.70;2.85;;;;;;;15.79;88.66;100962.50;10178815;29;20040;-75
2022/10/23 11:42:30;;;;;;;10.10;3.20;;;;;;;16.10;87.76;100946.59;10202338;29;20579;-75
2022/10/23 11:47:41;;;;;;;5.20;2.63;;;;;;;16.22;87.39;100949.19;10202444;29;20095;-76
2022/10/23 11:52:57;;;;;;;6.03;2.30;;;;;;;15.93;86.39;100934.31;10200879;29;20127;-75
2022/10/23 11:58:22;;;;;;;6.38;2.38;;;;;;;15.82;86.02;100914.97;10183460;29;20052;-76
2022/10/23 12:03:35;;;;;;;9.60;2.50;;;;;;;15.96;86.09;100905.28;10183679;29;20047;-75
2022/10/23 12:08:39;;;;;;;9.25;2.65;;;;;;;16.34;86.06;100904.22;10199605;29;20047;-75
2022/10/23 12:13:44;;;;;;;9.07;3.13;;;;;;;16.43;85.10;100896.25;10167957;29;20121;-78
2022/10/23 12:18:48;;;;;;;7.53;2.58;;;;;;;16.36;84.61;100881.34;10199980;29;20048;-77
2022/10/23 12:24:08;;;;;;;5.03;2.22;;;;;;;16.24;84.49;100858.50;10181735;29;20455;-78
2022/10/23 12:29:39;;;;;;;6.22;2.05;;;;;;;16.16;84.17;100847.06;10199515;29;20434;-77
2022/10/23 12:34:41;;;;;;;6.07;2.10;;;;;;;16.15;84.36;100847.06;10195138;29;20043;-77
2022/10/23 12:39:42;;;;;;;7.60;2.90;;;;;;;15.98;84.04;100821.63;10198096;29;20040;-77
2022/10/23 12:44:44;;;;;;;12.32;2.20;;;;;;;15.99;84.42;100799.63;10198490;29;20074;-77
2022/10/23 12:49:50;;;;;;;7.07;2.30;;;;;;;16.04;84.43;100789.91;10198247;29;20527;-77
2022/10/23 12:54:52;;;;;;;7.97;2.95;;;;;;;16.09;84.57;100781.94;10196705;29;20650;-77
2022/10/23 13:00:09;;;;;;;10.25;2.17;;;;;;;16.10;84.65;100757.28;10211573;29;20047;-77
2022/10/23 13:05:16;;;;;;;5.38;2.53;;;;;;;16.08;84.94;100781.06;10195098;29;20051;-76
2022/10/23 13:10:20;;;;;;;6.90;2.65;;;;;;;16.06;84.27;100769.66;10180475;29;20169;-77
2022/10/23 13:15:36;;;;;;;6.43;2.25;;;;;;;16.07;84.71;100760.81;10180970;29;20464;-77
2022/10/23 13:20:50;;;;;;;4.47;2.60;;;;;;;16.20;84.85;100744.91;10180857;29;20051;-77
2022/10/23 13:26:18;;;;;;;5.10;1.88;;;;;;;16.11;84.78;100781.94;10197440;29;20047;-77
2022/10/23 13:31:19;;;;;;;7.43;2.10;;;;;;;16.04;84.65;100784.63;10197277;29;20059;-76
2022/10/23 13:36:23;;;;;;;7.95;2.20;;;;;;;16.00;84.52;100756.50;10179314;29;20234;-76
2022/10/23 13:41:27;;;;;;;9.75;2.45;;;;;;;15.93;84.93;100725.72;10196226;29;20071;-77
2022/10/23 13:46:28;;;;;;;7.95;2.80;;;;;;;15.94;85.02;100735.38;10197304;29;20103;-76
2022/10/23 13:51:35;;;;;;;7.55;2.13;;;;;;;15.94;85.28;100719.53;10196475;29;20446;-76
2022/10/23 13:56:42;;;;;;;7.47;1.70;;;;;;;15.92;85.00;100707.25;10197421;29;20074;-77
2022/10/23 14:01:46;;;;;;;6.10;2.50;;;;;;;15.90;85.31;100705.47;10179850;29;20063;-76
2022/10/23 14:06:48;;;;;;;7.40;2.05;;;;;;;15.81;85.11;100702.91;10165562;29;20385;-77
2022/10/23 14:11:50;;;;;;;5.90;2.20;;;;;;;15.80;85.27;100692.34;10180317;29;20054;-77
2022/10/23 14:16:53;;;;;;;5.35;2.38;;;;;;;15.77;85.49;100677.38;10197271;29;20059;-76
2022/10/23 14:21:55;;;;;;;6.72;2.40;;;;;;;15.77;85.45;100658.03;10196361;29;20486;-76
2022/10/23 14:26:56;;;;;;;8.43;2.40;;;;;;;15.71;85.80;100640.44;10199678;29;20122;-77
2022/10/23 14:31:58;;;;;;;10.90;3.22;;;;;;;15.71;86.21;100621.97;10197662;29;20074;-77
2022/10/23 14:36:59;;;;;;;13.18;3.05;;;;;;;15.73;86.28;100578.84;10196932;29;20047;-75
2022/10/23 14:42:09;;;;;;;7.32;3.20;;;;;;;15.66;86.49;100598.25;10195401;29;20055;-75
2022/10/23 14:47:11;;;;;;;9.00;2.75;;;;;;;15.63;86.91;100607.97;10178527;29;20539;-76
2022/10/23 14:52:12;;;;;;;8.25;2.08;;;;;;;15.55;86.71;100615.91;10194965;29;20517;-77
2022/10/23 14:57:16;;;;;;;7.63;2.60;;;;;;;15.55;86.70;100632.63;10178130;29;20051;-76
2022/10/23 15:02:18;;;;;;;5.95;2.25;;;;;;;15.55;87.02;100626.47;10186435;29;20527;-76
2022/10/23 15:07:19;;;;;;;8.82;2.10;;;;;;;15.51;86.96;100617.69;10178556;29;20056;-77
2022/10/23 15:12:21;;;;;;;7.82;2.00;;;;;;;15.49;87.40;100618.59;10161579;29;20427;-76
2022/10/23 15:17:23;;;;;;;9.38;3.20;;;;;;;15.39;87.13;100607.22;10194969;29;20527;-76
2022/10/23 15:22:25;;;;;;;8.05;3.30;;;;;;;15.33;87.38;100594.94;10194444;29;20067;-75
2022/10/23 15:27:26;;;;;;;9.48;3.63;;;;;;;15.29;87.63;100593.19;10195115;29;20059;-76
2022/10/23 15:32:28;;;;;;;10.52;2.75;;;;;;;15.26;87.44;100587.94;10194291;29;20512;-76
2022/10/23 15:37:29;;;;;;;7.38;2.35;;;;;;;15.18;87.93;100595.03;10195060;29;20048;-76
2022/10/23 15:42:31;;;;;;;679.08;313.52;;;;;;;15.13;87.63;100576.59;10193740;29;20071;-76
2022/10/23 15:47:32;;;;;;;9.02;2.67;;;;;;;15.06;87.84;100573.97;10176998;29;20051;-77
2022/10/23 15:52:34;;;;;;;6.18;2.63;;;;;;;14.93;88.07;100552.94;10194447;29;20047;-76
2022/10/23 15:57:39;;;;;;;6.57;2.10;;;;;;;14.82;88.25;100536.31;10177443;29;20155;-76
2022/10/23 16:02:41;;;;;;;5.18;2.13;;;;;;;14.76;88.59;100539.84;10200277;29;20095;-76
2022/10/23 16:07:43;;;;;;;9.82;2.33;;;;;;;14.72;88.42;100513.50;10202269;29;20048;-75
2022/10/23 16:12:44;;;;;;;4.95;2.30;;;;;;;14.66;88.61;100507.34;10183534;29;20044;-75
2022/10/23 16:17:47;;;;;;;7.68;2.28;;;;;;;14.68;88.58;100504.72;10201740;29;20130;-74
2022/10/23 16:22:49;;;;;;;8.85;2.40;;;;;;;14.67;88.50;100482.78;10200748;29;20052;-75
2022/10/23 16:27:50;;;;;;;4.90;1.77;;;;;;;14.62;88.13;100478.41;10201839;29;20114;-74
2022/10/23 16:32:53;;;;;;;6.20;2.15;;;;;;;14.63;88.29;100474.88;10200974;29;20047;-75
2022/10/23 16:37:55;;;;;;;8.20;2.30;;;;;;;14.66;88.30;100480.16;10200256;29;20040;-76
2022/10/23 16:42:57;;;;;;;6.05;1.88;;;;;;;14.58;88.08;100481.91;10183028;29;20412;-77
2022/10/23 16:48:05;;;;;;;3.07;1.53;;;;;;;14.51;88.27;100465.25;10200948;29;20051;-76
2022/10/23 16:53:07;;;;;;;6.53;2.25;;;;;;;14.45;88.11;100452.97;10199760;29;20056;-76
2022/10/23 16:58:08;;;;;;;6.32;2.35;;;;;;;14.46;88.40;100451.22;10200272;29;20072;-79
2022/10/23 17:03:10;;;;;;;6.60;1.38;;;;;;;14.43;88.00;100451.25;10194731;29;20047;-78
2022/10/23 17:08:11;;;;;;;3.63;1.48;;;;;;;14.40;87.92;100462.66;10186084;29;20043;-75
2022/10/23 17:13:13;;;;;;;5.07;1.52;;;;;;;14.40;87.89;100474.97;10197490;29;20111;-77
2022/10/23 17:18:14;;;;;;;6.90;1.77;;;;;;;14.42;88.13;100478.47;10182293;29;20083;-77
2022/10/23 17:23:16;;;;;;;3.13;1.58;;;;;;;14.41;87.98;100458.25;10181174;29;20131;-76
2022/10/23 17:28:17;;;;;;;3.40;1.50;;;;;;;14.43;88.05;100452.09;10184205;29;20370;-74
2022/10/23 17:33:19;;;;;;;6.70;1.65;;;;;;;14.45;87.71;100460.00;10191114;29;20051;-74
2022/10/23 17:38:20;;;;;;;5.32;1.70;;;;;;;14.43;87.83;100448.59;10173632;29;20032;-74
2022/10/23 17:43:22;;;;;;;5.50;1.58;;;;;;;14.46;87.38;100452.09;10165744;29;20182;-73
2022/10/23 17:48:25;;;;;;;6.22;1.48;;;;;;;14.40;87.48;100465.28;10166455;29;20087;-74
2022/10/23 17:53:26;;;;;;;5.20;1.80;;;;;;;14.37;87.25;100446.88;10166290;29;20107;-75
2022/10/23 17:58:28;;;;;;;8.50;1.80;;;;;;;14.36;87.38;100471.44;10172646;29;20079;-75
2022/10/23 18:03:30;;;;;;;4.90;1.60;;;;;;;14.38;87.39;100450.38;10168069;29;20047;-75
2022/10/23 18:08:32;;;;;;;3.53;1.48;;;;;;;14.49;87.09;100444.19;10175923;29;20098;-76
2022/10/23 18:13:35;;;;;;;2.10;1.20;;;;;;;14.56;86.81;100442.41;10172651;29;20099;-75
2022/10/23 18:18:38;;;;;;;4.63;1.65;;;;;;;14.66;86.31;100438.84;10174505;29;20040;-75
2022/10/23 18:23:41;;;;;;;7.25;1.20;;;;;;;14.67;86.27;100440.59;10170134;29;20094;-75
2022/10/23 18:28:47;;;;;;;4.80;1.90;;;;;;;14.60;86.09;100449.38;10178437;29;20468;-76
2022/10/23 18:33:48;;;;;;;5.68;1.63;;;;;;;14.57;86.20;100444.13;10167906;29;20043;-75
2022/10/23 18:38:50;;;;;;;6.78;1.80;;;;;;;14.59;86.06;100436.22;10150856;29;20387;-74
2022/10/23 18:43:53;;;;;;;3.20;1.55;;;;;;;14.60;86.09;100433.59;10171922;29;20069;-75
2022/10/23 18:48:54;;;;;;;5.80;2.00;;;;;;;14.63;85.93;100412.50;10156384;29;20047;-74
2022/10/23 18:53:58;;;;;;;6.70;1.45;;;;;;;14.80;85.94;100401.91;10171090;29;20056;-75
2022/10/23 18:59:02;;;;;;;11.32;1.80;;;;;;;14.93;85.56;100389.50;10160638;29;20047;-75
2022/10/23 19:04:04;;;;;;;7.63;2.40;;;;;;;15.04;85.42;100394.69;10178011;29;20095;-74
2022/10/23 19:09:08;;;;;;;3.83;1.70;;;;;;;15.10;85.46;100370.03;10168491;29;20083;-74
2022/10/23 19:14:09;;;;;;;2.58;1.35;;;;;;;15.09;85.19;100363.03;10179608;29;20050;-74
2022/10/23 19:19:17;;;;;;;5.82;1.67;;;;;;;15.20;85.11;100358.53;10199227;29;20044;-74
2022/10/23 19:24:22;;;;;;;4.72;1.25;;;;;;;15.23;85.20;100344.44;10179678;29;20440;-75
2022/10/23 19:29:26;;;;;;;7.22;2.28;;;;;;;15.21;85.26;100373.47;10170449;29;20413;-74
2022/10/23 19:34:27;;;;;;;4.68;1.58;;;;;;;15.26;85.25;100354.97;10169098;29;20118;-74
2022/10/23 19:39:29;;;;;;;6.43;1.30;;;;;;;15.18;85.38;100374.34;10179424;29;20063;-74
2022/10/23 19:44:30;;;;;;;4.50;1.40;;;;;;;15.21;85.91;100376.09;10175925;29;20079;-74
2022/10/23 19:49:32;;;;;;;7.60;1.33;;;;;;;15.10;86.08;100354.22;10177795;29;20056;-74
2022/10/23 19:54:34;;;;;;;6.85;1.63;;;;;;;15.00;86.17;100377.16;10171755;29;20044;-74
2022/10/23 19:59:35;;;;;;;6.75;1.50;;;;;;;14.91;86.23;100377.22;10201647;29;20079;-74
2022/10/23 20:04:37;;;;;;;3.92;1.33;;;;;;;14.89;86.98;100357.88;10202888;29;20134;-73
2022/10/23 20:09:39;;;;;;;9.07;2.00;;;;;;;14.79;87.09;100350.06;10177553;29;22207;-74
2022/10/23 20:14:40;;;;;;;3.53;1.55;;;;;;;14.70;87.22;100352.75;10167396;29;20048;-74
2022/10/23 20:19:43;;;;;;;4.63;1.25;;;;;;;14.72;87.67;100363.28;10202248;29;20039;-74
2022/10/23 20:24:45;;;;;;;4.20;1.50;;;;;;;14.69;87.93;100360.69;10179960;29;20578;-74
2022/10/23 20:29:47;;;;;;;3.92;1.48;;;;;;;14.62;87.95;100357.19;10201027;29;20047;-74
2022/10/23 20:34:49;;;;;;;4.32;1.73;;;;;;;14.55;88.38;100361.59;10167760;29;20075;-74
2022/10/23 20:39:53;;;;;;;4.35;1.40;;;;;;;14.53;88.71;100358.09;10185144;29;20584;-74
2022/10/23 20:44:55;;;;;;;5.55;1.60;;;;;;;14.56;88.54;100357.19;10183745;29;20103;-73
2022/10/23 20:49:56;;;;;;;7.65;1.38;;;;;;;14.57;88.95;100353.69;10190523;29;20103;-74
2022/10/23 20:54:58;;;;;;;5.60;1.65;;;;;;;14.54;89.02;100365.13;10184050;29;20052;-74
2022/10/23 21:00:01;;;;;;;5.88;1.52;;;;;;;14.52;89.24;100372.16;10191025;29;20087;-74
2022/10/23 21:05:03;;;;;;;5.18;1.77;;;;;;;14.50;89.47;100369.53;10200536;29;20055;-74
2022/10/23 21:10:05;;;;;;;3.28;1.48;;;;;;;14.50;89.75;100374.81;10164076;29;20099;-74
2022/10/23 21:15:07;;;;;;;6.38;1.83;;;;;;;14.49;89.74;100372.19;10173380;29;20040;-73
2022/10/23 21:20:09;;;;;;;6.93;1.80;;;;;;;14.49;90.19;100382.72;10154244;29;20059;-73
2022/10/23 21:25:10;;;;;;;8.75;2.08;;;;;;;14.41;90.34;100382.75;10192271;29;20107;-74
2022/10/23 21:30:12;;;;;;;5.38;1.88;;;;;;;14.37;90.63;100401.22;10188559;29;20051;-74
2022/10/23 21:35:14;;;;;;;4.82;1.95;;;;;;;14.32;90.94;100404.75;10167147;29;20159;-74
2022/10/23 21:40:15;;;;;;;7.85;1.80;;;;;;;14.31;90.84;100386.31;10175775;29;20052;-74
2022/10/23 21:45:17;;;;;;;5.20;1.73;;;;;;;14.32;91.33;100370.50;10199135;29;20528;-74
2022/10/23 21:50:19;;;;;;;7.88;1.83;;;;;;;14.28;91.58;100392.47;10197762;29;20099;-73
2022/10/23 21:55:24;;;;;;;5.40;2.50;;;;;;;14.28;91.63;100381.94;10198473;29;20048;-74
2022/10/23 22:00:26;;;;;;;6.45;2.00;;;;;;;14.31;91.56;100373.16;10190175;29;20054;-74
2022/10/23 22:05:28;;;;;;;6.50;2.17;;;;;;;14.29;91.61;100375.78;10170943;29;20052;-74
2022/10/23 22:10:29;;;;;;;6.47;1.95;;;;;;;14.31;91.89;100379.28;10175906;29;20059;-74
2022/10/23 22:15:30;;;;;;;6.93;2.00;;;;;;;14.37;91.69;100361.72;10192521;29;20051;-74
2022/10/23 22:20:32;;;;;;;10.57;1.98;;;;;;;14.45;91.47;100346.72;10164191;29;20048;-73
2022/10/23 22:25:37;;;;;;;8.45;1.80;;;;;;;14.52;91.62;100351.09;10172486;29;20107;-74
2022/10/23 22:30:38;;;;;;;7.18;1.80;;;;;;;14.53;91.19;100346.69;10194416;29;20048;-73
2022/10/23 22:35:40;;;;;;;8.00;1.92;;;;;;;14.47;91.31;100343.22;10173123;29;20119;-74
2022/10/23 22:40:41;;;;;;;3.38;1.70;;;;;;;14.53;91.18;100342.28;10196689;29;20572;-73
2022/10/23 22:45:47;;;;;;;13.00;1.95;;;;;;;14.45;90.81;100339.69;10197263;29;20051;-73
2022/10/23 22:50:48;;;;;;;4.93;1.70;;;;;;;14.40;90.76;100341.50;10173810;29;20477;-73
2022/10/23 22:55:50;;;;;;;3.38;1.48;;;;;;;14.44;90.67;100355.50;10193991;29;20519;-74
2022/10/23 23:01:01;;;;;;;8.77;2.40;;;;;;;14.49;90.89;100351.09;10194566;29;20076;-73
2022/10/23 23:06:04;;;;;;;8.05;2.85;;;;;;;14.56;90.70;100357.19;10182086;29;20055;-73
2022/10/23 23:11:08;;;;;;;7.40;1.92;;;;;;;14.58;90.30;100361.59;10192843;29;20048;-74
2022/10/23 23:16:18;;;;;;;7.03;1.60;;;;;;;14.62;90.15;100358.09;10195336;29;20115;-73
2022/10/23 23:21:20;;;;;;;6.07;1.75;;;;;;;14.60;90.08;100354.53;10193871;29;20048;-74
2022/10/23 23:26:22;;;;;;;4.80;1.70;;;;;;;14.58;90.04;100352.81;10186529;29;20673;-74
2022/10/23 23:31:25;;;;;;;7.38;1.80;;;;;;;14.63;89.67;100358.94;10194530;29;20086;-74